sensor_id;sensor_type;location;lat;lon;timestamp;temperature;humidity
19941;DHT22;10132;50.864;5.176;2024-01-27T00:01:44;1.80;99.90
19941;DHT22;10132;50.864;5.176;2024-01-27T00:03:46;1.80;99.90
19941;DHT22;10132;50.864;5.176;2024-01-27T00:05:48;1.90;99.90
19941;DHT22;10132;50.864;5.176;2024-01-27T00:07:50;1.90;99.90
19941;DHT22;10132;50.864;5.176;2024-01-27T00:09:54;1.90;99.90
19941;DHT22;10132;50.864;5.176;2024-01-27T00:11:55;2.00;99.90
19941;DHT22;10132;50.864;5.176;2024-01-27T00:13:57;2.00;99.90
19941;DHT22;10132;50.864;5.176;2024-01-27T00:15:59;1.90;99.90
19941;DHT22;10132;50.864;5.176;2024-01-27T00:18:01;2.10;99.90
19941;DHT22;10132;50.864;5.176;2024-01-27T00:20:04;2.30;99.90
19941;DHT22;10132;50.864;5.176;2024-01-27T00:22:07;2.40;99.90
19941;DHT22;10132;50.864;5.176;2024-01-27T00:24:08;2.50;99.90
19941;DHT22;10132;50.864;5.176;2024-01-27T00:26:11;2.60;99.90
19941;DHT22;10132;50.864;5.176;2024-01-27T00:28:12;2.70;99.90
19941;DHT22;10132;50.864;5.176;2024-01-27T00:30:14;2.80;99.90
19941;DHT22;10132;50.864;5.176;2024-01-27T00:32:17;2.80;99.90
19941;DHT22;10132;50.864;5.176;2024-01-27T00:34:19;2.90;99.90
19941;DHT22;10132;50.864;5.176;2024-01-27T00:36:20;2.90;99.90
19941;DHT22;10132;50.864;5.176;2024-01-27T00:38:22;2.90;99.90
19941;DHT22;10132;50.864;5.176;2024-01-27T00:40:24;3.00;99.90
19941;DHT22;10132;50.864;5.176;2024-01-27T00:42:27;3.00;99.90
19941;DHT22;10132;50.864;5.176;2024-01-27T00:44:29;3.00;99.90
19941;DHT22;10132;50.864;5.176;2024-01-27T00:46:30;3.00;99.90
19941;DHT22;10132;50.864;5.176;2024-01-27T00:48:32;3.00;99.90
19941;DHT22;10132;50.864;5.176;2024-01-27T00:50:33;3.00;99.90
19941;DHT22;10132;50.864;5.176;2024-01-27T00:52:35;3.10;99.90
19941;DHT22;10132;50.864;5.176;2024-01-27T00:54:37;3.00;99.90
19941;DHT22;10132;50.864;5.176;2024-01-27T00:56:38;2.90;99.90
19941;DHT22;10132;50.864;5.176;2024-01-27T00:58:42;2.90;99.90
19941;DHT22;10132;50.864;5.176;2024-01-27T01:00:44;2.80;99.90
19941;DHT22;10132;50.864;5.176;2024-01-27T01:02:46;2.80;99.90
19941;DHT22;10132;50.864;5.176;2024-01-27T01:04:48;2.90;99.90
19941;DHT22;10132;50.864;5.176;2024-01-27T01:06:50;2.90;99.90
19941;DHT22;10132;50.864;5.176;2024-01-27T01:08:52;2.90;99.90
19941;DHT22;10132;50.864;5.176;2024-01-27T01:10:53;2.90;99.90
19941;DHT22;10132;50.864;5.176;2024-01-27T01:12:55;2.80;99.90
19941;DHT22;10132;50.864;5.176;2024-01-27T01:14:57;2.70;99.90
19941;DHT22;10132;50.864;5.176;2024-01-27T01:16:59;2.70;99.90
19941;DHT22;10132;50.864;5.176;2024-01-27T01:19:02;2.70;99.90
19941;DHT22;10132;50.864;5.176;2024-01-27T01:21:04;2.70;99.90
19941;DHT22;10132;50.864;5.176;2024-01-27T01:23:07;2.60;99.90
19941;DHT22;10132;50.864;5.176;2024-01-27T01:25:09;2.60;99.90
19941;DHT22;10132;50.864;5.176;2024-01-27T01:27:11;2.60;99.90
19941;DHT22;10132;50.864;5.176;2024-01-27T01:29:13;2.60;99.90
19941;DHT22;10132;50.864;5.176;2024-01-27T01:31:17;2.50;99.90
19941;DHT22;10132;50.864;5.176;2024-01-27T01:33:19;2.30;99.90
19941;DHT22;10132;50.864;5.176;2024-01-27T01:35:21;2.00;99.90
19941;DHT22;10132;50.864;5.176;2024-01-27T01:37:23;1.90;99.90
19941;DHT22;10132;50.864;5.176;2024-01-27T01:39:25;1.70;99.90
19941;DHT22;10132;50.864;5.176;2024-01-27T01:41:27;1.50;99.90
19941;DHT22;10132;50.864;5.176;2024-01-27T01:43:29;1.40;99.90
19941;DHT22;10132;50.864;5.176;2024-01-27T01:45:31;1.30;99.90
19941;DHT22;10132;50.864;5.176;2024-01-27T01:47:33;1.20;99.90
19941;DHT22;10132;50.864;5.176;2024-01-27T01:49:36;1.20;99.90
19941;DHT22;10132;50.864;5.176;2024-01-27T01:51:38;1.30;99.90
19941;DHT22;10132;50.864;5.176;2024-01-27T01:53:40;1.30;99.90
19941;DHT22;10132;50.864;5.176;2024-01-27T01:55:42;1.20;99.90
19941;DHT22;10132;50.864;5.176;2024-01-27T01:57:44;1.30;99.90
19941;DHT22;10132;50.864;5.176;2024-01-27T01:59:45;1.40;99.90
19941;DHT22;10132;50.864;5.176;2024-01-27T02:01:48;1.60;99.90
19941;DHT22;10132;50.864;5.176;2024-01-27T02:03:54;1.70;99.90
19941;DHT22;10132;50.864;5.176;2024-01-27T02:05:56;1.60;99.90
19941;DHT22;10132;50.864;5.176;2024-01-27T02:07:58;1.70;99.90
19941;DHT22;10132;50.864;5.176;2024-01-27T02:10:02;1.70;99.90
19941;DHT22;10132;50.864;5.176;2024-01-27T02:12:06;1.80;99.90
19941;DHT22;10132;50.864;5.176;2024-01-27T02:14:08;1.80;99.90
19941;DHT22;10132;50.864;5.176;2024-01-27T02:16:10;1.60;99.90
19941;DHT22;10132;50.864;5.176;2024-01-27T02:18:12;1.20;99.90
19941;DHT22;10132;50.864;5.176;2024-01-27T02:20:16;0.90;99.90
19941;DHT22;10132;50.864;5.176;2024-01-27T02:22:18;0.70;99.90
19941;DHT22;10132;50.864;5.176;2024-01-27T02:24:22;0.60;99.90
19941;DHT22;10132;50.864;5.176;2024-01-27T02:26:24;0.80;99.90
19941;DHT22;10132;50.864;5.176;2024-01-27T02:28:26;0.90;99.90
19941;DHT22;10132;50.864;5.176;2024-01-27T02:30:28;0.90;99.90
19941;DHT22;10132;50.864;5.176;2024-01-27T02:32:29;0.70;99.90
19941;DHT22;10132;50.864;5.176;2024-01-27T02:34:31;0.60;99.90
19941;DHT22;10132;50.864;5.176;2024-01-27T02:36:32;0.70;99.90
19941;DHT22;10132;50.864;5.176;2024-01-27T02:38:34;0.90;99.90
19941;DHT22;10132;50.864;5.176;2024-01-27T02:40:37;1.10;99.90
19941;DHT22;10132;50.864;5.176;2024-01-27T02:42:39;1.20;99.90
19941;DHT22;10132;50.864;5.176;2024-01-27T02:44:42;1.30;99.90
19941;DHT22;10132;50.864;5.176;2024-01-27T02:46:44;1.20;99.90
19941;DHT22;10132;50.864;5.176;2024-01-27T02:48:46;1.10;99.90
19941;DHT22;10132;50.864;5.176;2024-01-27T02:50:48;1.20;99.90
19941;DHT22;10132;50.864;5.176;2024-01-27T02:52:50;1.20;99.90
19941;DHT22;10132;50.864;5.176;2024-01-27T02:54:52;1.20;99.90
19941;DHT22;10132;50.864;5.176;2024-01-27T02:56:56;1.10;99.90
19941;DHT22;10132;50.864;5.176;2024-01-27T02:58:57;1.10;99.90
19941;DHT22;10132;50.864;5.176;2024-01-27T03:00:59;1.20;99.90
19941;DHT22;10132;50.864;5.176;2024-01-27T03:03:01;1.10;99.90
19941;DHT22;10132;50.864;5.176;2024-01-27T03:05:02;1.00;99.90
19941;DHT22;10132;50.864;5.176;2024-01-27T03:07:04;1.10;99.90
19941;DHT22;10132;50.864;5.176;2024-01-27T03:09:06;1.20;99.90
19941;DHT22;10132;50.864;5.176;2024-01-27T03:11:07;1.20;99.90
19941;DHT22;10132;50.864;5.176;2024-01-27T03:13:11;1.20;99.90
19941;DHT22;10132;50.864;5.176;2024-01-27T03:15:13;1.20;99.90
19941;DHT22;10132;50.864;5.176;2024-01-27T03:17:15;1.30;99.90
19941;DHT22;10132;50.864;5.176;2024-01-27T03:19:16;1.30;99.90
19941;DHT22;10132;50.864;5.176;2024-01-27T03:21:18;1.30;99.90
19941;DHT22;10132;50.864;5.176;2024-01-27T03:23:20;1.20;99.90
19941;DHT22;10132;50.864;5.176;2024-01-27T03:25:21;1.20;99.90
19941;DHT22;10132;50.864;5.176;2024-01-27T03:27:26;1.20;99.90
19941;DHT22;10132;50.864;5.176;2024-01-27T03:29:29;1.20;99.90
19941;DHT22;10132;50.864;5.176;2024-01-27T03:31:31;1.30;99.90
19941;DHT22;10132;50.864;5.176;2024-01-27T03:33:34;1.10;99.90
19941;DHT22;10132;50.864;5.176;2024-01-27T03:35:35;1.00;99.90
19941;DHT22;10132;50.864;5.176;2024-01-27T03:37:37;1.00;99.90
19941;DHT22;10132;50.864;5.176;2024-01-27T03:39:41;0.90;99.90
19941;DHT22;10132;50.864;5.176;2024-01-27T03:41:44;0.90;99.90
19941;DHT22;10132;50.864;5.176;2024-01-27T03:43:46;0.90;99.90
19941;DHT22;10132;50.864;5.176;2024-01-27T03:45:49;0.80;99.90
19941;DHT22;10132;50.864;5.176;2024-01-27T03:47:52;0.60;99.90
19941;DHT22;10132;50.864;5.176;2024-01-27T03:49:54;0.60;99.90
19941;DHT22;10132;50.864;5.176;2024-01-27T03:51:56;0.60;99.90
19941;DHT22;10132;50.864;5.176;2024-01-27T03:53:58;0.60;99.90
19941;DHT22;10132;50.864;5.176;2024-01-27T03:56:00;0.60;99.90
19941;DHT22;10132;50.864;5.176;2024-01-27T03:58:04;0.60;99.90
19941;DHT22;10132;50.864;5.176;2024-01-27T04:00:06;0.40;99.90
19941;DHT22;10132;50.864;5.176;2024-01-27T04:02:10;0.30;99.90
19941;DHT22;10132;50.864;5.176;2024-01-27T04:04:12;0.20;99.90
19941;DHT22;10132;50.864;5.176;2024-01-27T04:06:15;0.20;99.90
19941;DHT22;10132;50.864;5.176;2024-01-27T04:08:17;0.10;99.90
19941;DHT22;10132;50.864;5.176;2024-01-27T04:10:19;0.30;99.90
19941;DHT22;10132;50.864;5.176;2024-01-27T04:12:20;0.50;99.90
19941;DHT22;10132;50.864;5.176;2024-01-27T04:14:22;0.60;99.90
19941;DHT22;10132;50.864;5.176;2024-01-27T04:16:24;0.50;99.90
19941;DHT22;10132;50.864;5.176;2024-01-27T04:18:28;0.50;99.90
19941;DHT22;10132;50.864;5.176;2024-01-27T04:20:30;0.50;99.90
19941;DHT22;10132;50.864;5.176;2024-01-27T04:22:32;0.20;99.90
19941;DHT22;10132;50.864;5.176;2024-01-27T04:24:34;0.10;99.90
19941;DHT22;10132;50.864;5.176;2024-01-27T04:26:36;0.20;99.90
19941;DHT22;10132;50.864;5.176;2024-01-27T04:28:37;0.30;99.90
19941;DHT22;10132;50.864;5.176;2024-01-27T04:30:39;0.30;99.90
19941;DHT22;10132;50.864;5.176;2024-01-27T04:32:41;0.40;99.90
19941;DHT22;10132;50.864;5.176;2024-01-27T04:34:44;0.40;99.90
19941;DHT22;10132;50.864;5.176;2024-01-27T04:36:46;0.30;99.90
19941;DHT22;10132;50.864;5.176;2024-01-27T04:38:48;0.30;99.90
19941;DHT22;10132;50.864;5.176;2024-01-27T04:40:50;0.20;99.90
19941;DHT22;10132;50.864;5.176;2024-01-27T04:42:52;0.30;99.90
19941;DHT22;10132;50.864;5.176;2024-01-27T04:44:54;0.40;99.90
19941;DHT22;10132;50.864;5.176;2024-01-27T04:46:56;0.40;99.90
19941;DHT22;10132;50.864;5.176;2024-01-27T04:48:58;0.50;99.90
19941;DHT22;10132;50.864;5.176;2024-01-27T04:51:01;0.60;99.90
19941;DHT22;10132;50.864;5.176;2024-01-27T04:53:03;0.50;99.90
19941;DHT22;10132;50.864;5.176;2024-01-27T04:55:05;0.50;99.90
19941;DHT22;10132;50.864;5.176;2024-01-27T04:57:07;0.10;99.90
19941;DHT22;10132;50.864;5.176;2024-01-27T04:59:09;-0.10;99.90
19941;DHT22;10132;50.864;5.176;2024-01-27T05:01:11;-0.10;99.90
19941;DHT22;10132;50.864;5.176;2024-01-27T05:03:12;-0.10;99.90
19941;DHT22;10132;50.864;5.176;2024-01-27T05:05:15;-0.10;99.90
19941;DHT22;10132;50.864;5.176;2024-01-27T05:07:18;-0.10;99.90
19941;DHT22;10132;50.864;5.176;2024-01-27T05:09:20;-0.20;99.90
19941;DHT22;10132;50.864;5.176;2024-01-27T05:11:28;-0.10;99.90
19941;DHT22;10132;50.864;5.176;2024-01-27T05:13:31;-0.20;99.90
19941;DHT22;10132;50.864;5.176;2024-01-27T05:15:33;-0.30;99.90
19941;DHT22;10132;50.864;5.176;2024-01-27T05:17:34;-0.30;99.90
19941;DHT22;10132;50.864;5.176;2024-01-27T05:19:36;-0.30;99.90
19941;DHT22;10132;50.864;5.176;2024-01-27T05:21:38;-0.30;99.90
19941;DHT22;10132;50.864;5.176;2024-01-27T05:23:41;-0.30;99.90
19941;DHT22;10132;50.864;5.176;2024-01-27T05:25:43;-0.20;99.90
19941;DHT22;10132;50.864;5.176;2024-01-27T05:27:45;-0.20;99.90
19941;DHT22;10132;50.864;5.176;2024-01-27T05:29:47;0.00;99.90
19941;DHT22;10132;50.864;5.176;2024-01-27T05:31:48;0.10;99.90
19941;DHT22;10132;50.864;5.176;2024-01-27T05:33:50;0.00;99.90
19941;DHT22;10132;50.864;5.176;2024-01-27T05:35:52;-0.20;99.90
19941;DHT22;10132;50.864;5.176;2024-01-27T05:37:54;-0.30;99.90
19941;DHT22;10132;50.864;5.176;2024-01-27T05:39:58;-0.30;99.90
19941;DHT22;10132;50.864;5.176;2024-01-27T05:42:00;-0.30;99.90
19941;DHT22;10132;50.864;5.176;2024-01-27T05:44:02;-0.20;99.90
19941;DHT22;10132;50.864;5.176;2024-01-27T05:46:04;-0.20;99.90
19941;DHT22;10132;50.864;5.176;2024-01-27T05:48:07;-0.10;99.90
19941;DHT22;10132;50.864;5.176;2024-01-27T05:50:10;0.10;99.90
19941;DHT22;10132;50.864;5.176;2024-01-27T05:52:12;0.10;99.90
19941;DHT22;10132;50.864;5.176;2024-01-27T05:54:14;0.10;99.90
19941;DHT22;10132;50.864;5.176;2024-01-27T05:56:18;0.00;99.90
19941;DHT22;10132;50.864;5.176;2024-01-27T05:58:21;-0.10;99.90
19941;DHT22;10132;50.864;5.176;2024-01-27T06:00:23;-0.20;99.90
19941;DHT22;10132;50.864;5.176;2024-01-27T06:02:25;-0.30;99.90
19941;DHT22;10132;50.864;5.176;2024-01-27T06:04:27;-0.30;99.90
19941;DHT22;10132;50.864;5.176;2024-01-27T06:06:29;-0.40;99.90
19941;DHT22;10132;50.864;5.176;2024-01-27T06:08:31;-0.30;99.90
19941;DHT22;10132;50.864;5.176;2024-01-27T06:10:33;-0.20;99.90
19941;DHT22;10132;50.864;5.176;2024-01-27T06:12:38;0.10;99.90
19941;DHT22;10132;50.864;5.176;2024-01-27T06:14:41;0.30;99.90
19941;DHT22;10132;50.864;5.176;2024-01-27T06:16:43;0.40;99.90
19941;DHT22;10132;50.864;5.176;2024-01-27T06:18:45;0.40;99.90
19941;DHT22;10132;50.864;5.176;2024-01-27T06:20:47;0.40;99.90
19941;DHT22;10132;50.864;5.176;2024-01-27T06:22:49;0.50;99.90
19941;DHT22;10132;50.864;5.176;2024-01-27T06:24:52;0.50;99.90
19941;DHT22;10132;50.864;5.176;2024-01-27T06:26:54;0.40;99.90
19941;DHT22;10132;50.864;5.176;2024-01-27T06:28:57;0.40;99.90
19941;DHT22;10132;50.864;5.176;2024-01-27T06:30:59;0.20;99.90
19941;DHT22;10132;50.864;5.176;2024-01-27T06:33:00;-0.10;99.90
19941;DHT22;10132;50.864;5.176;2024-01-27T06:35:02;-0.30;99.90
19941;DHT22;10132;50.864;5.176;2024-01-27T06:37:04;-0.30;99.90
19941;DHT22;10132;50.864;5.176;2024-01-27T06:39:06;-0.30;99.90
19941;DHT22;10132;50.864;5.176;2024-01-27T06:41:09;-0.30;99.90
19941;DHT22;10132;50.864;5.176;2024-01-27T06:43:12;-0.40;99.90
19941;DHT22;10132;50.864;5.176;2024-01-27T06:45:16;-0.20;99.90
19941;DHT22;10132;50.864;5.176;2024-01-27T06:47:18;0.10;99.90
19941;DHT22;10132;50.864;5.176;2024-01-27T06:49:20;0.40;99.90
19941;DHT22;10132;50.864;5.176;2024-01-27T06:51:22;0.50;99.90
19941;DHT22;10132;50.864;5.176;2024-01-27T06:53:24;0.50;99.90
19941;DHT22;10132;50.864;5.176;2024-01-27T06:55:26;0.60;99.90
19941;DHT22;10132;50.864;5.176;2024-01-27T06:57:28;0.50;99.90
19941;DHT22;10132;50.864;5.176;2024-01-27T06:59:30;0.30;99.90
19941;DHT22;10132;50.864;5.176;2024-01-27T07:01:34;0.30;99.90
19941;DHT22;10132;50.864;5.176;2024-01-27T07:03:36;0.40;99.90
19941;DHT22;10132;50.864;5.176;2024-01-27T07:05:40;0.40;99.90
19941;DHT22;10132;50.864;5.176;2024-01-27T07:07:42;0.40;99.90
19941;DHT22;10132;50.864;5.176;2024-01-27T07:09:43;0.40;99.90
19941;DHT22;10132;50.864;5.176;2024-01-27T07:11:45;0.30;99.90
19941;DHT22;10132;50.864;5.176;2024-01-27T07:13:47;0.40;99.90
19941;DHT22;10132;50.864;5.176;2024-01-27T07:15:49;0.20;99.90
19941;DHT22;10132;50.864;5.176;2024-01-27T07:17:53;0.00;99.90
19941;DHT22;10132;50.864;5.176;2024-01-27T07:19:55;-0.20;99.90
19941;DHT22;10132;50.864;5.176;2024-01-27T07:21:57;-0.10;99.90
19941;DHT22;10132;50.864;5.176;2024-01-27T07:24:00;0.10;99.90
19941;DHT22;10132;50.864;5.176;2024-01-27T07:26:03;0.20;99.90
19941;DHT22;10132;50.864;5.176;2024-01-27T07:28:06;0.10;99.90
19941;DHT22;10132;50.864;5.176;2024-01-27T07:30:08;0.00;99.90
19941;DHT22;10132;50.864;5.176;2024-01-27T07:32:09;0.10;99.90
19941;DHT22;10132;50.864;5.176;2024-01-27T07:34:15;0.10;99.90
19941;DHT22;10132;50.864;5.176;2024-01-27T07:36:17;0.20;99.90
19941;DHT22;10132;50.864;5.176;2024-01-27T07:38:19;0.20;99.90
19941;DHT22;10132;50.864;5.176;2024-01-27T07:40:21;0.20;99.90
19941;DHT22;10132;50.864;5.176;2024-01-27T07:42:24;0.10;99.90
19941;DHT22;10132;50.864;5.176;2024-01-27T07:44:27;0.10;99.90
19941;DHT22;10132;50.864;5.176;2024-01-27T07:46:29;0.30;99.90
19941;DHT22;10132;50.864;5.176;2024-01-27T07:48:30;0.50;99.90
19941;DHT22;10132;50.864;5.176;2024-01-27T07:50:34;0.60;99.90
19941;DHT22;10132;50.864;5.176;2024-01-27T07:52:36;0.50;99.90
19941;DHT22;10132;50.864;5.176;2024-01-27T07:54:38;0.60;99.90
19941;DHT22;10132;50.864;5.176;2024-01-27T07:56:40;0.60;99.90
19941;DHT22;10132;50.864;5.176;2024-01-27T07:58:43;0.60;99.90
19941;DHT22;10132;50.864;5.176;2024-01-27T08:00:44;0.60;99.90
19941;DHT22;10132;50.864;5.176;2024-01-27T08:02:46;0.70;99.90
19941;DHT22;10132;50.864;5.176;2024-01-27T08:04:48;0.90;99.90
19941;DHT22;10132;50.864;5.176;2024-01-27T08:06:50;1.10;99.90
19941;DHT22;10132;50.864;5.176;2024-01-27T08:08:52;1.30;99.90
19941;DHT22;10132;50.864;5.176;2024-01-27T08:10:54;1.60;99.90
19941;DHT22;10132;50.864;5.176;2024-01-27T08:12:56;1.70;99.90
19941;DHT22;10132;50.864;5.176;2024-01-27T08:14:58;1.90;99.90
19941;DHT22;10132;50.864;5.176;2024-01-27T08:17:00;1.90;99.90
19941;DHT22;10132;50.864;5.176;2024-01-27T08:19:02;2.00;99.90
19941;DHT22;10132;50.864;5.176;2024-01-27T08:21:04;2.10;99.90
19941;DHT22;10132;50.864;5.176;2024-01-27T08:23:07;2.40;99.90
19941;DHT22;10132;50.864;5.176;2024-01-27T08:25:09;2.60;99.90
19941;DHT22;10132;50.864;5.176;2024-01-27T08:27:11;2.80;99.90
19941;DHT22;10132;50.864;5.176;2024-01-27T08:29:12;2.70;99.90
19941;DHT22;10132;50.864;5.176;2024-01-27T08:31:15;2.70;99.90
19941;DHT22;10132;50.864;5.176;2024-01-27T08:33:17;2.80;99.90
19941;DHT22;10132;50.864;5.176;2024-01-27T08:35:18;2.90;99.90
19941;DHT22;10132;50.864;5.176;2024-01-27T08:37:21;3.20;99.90
19941;DHT22;10132;50.864;5.176;2024-01-27T08:39:24;3.50;99.90
19941;DHT22;10132;50.864;5.176;2024-01-27T08:41:25;3.70;99.90
19941;DHT22;10132;50.864;5.176;2024-01-27T08:43:27;3.80;99.90
19941;DHT22;10132;50.864;5.176;2024-01-27T08:45:29;3.90;99.90
19941;DHT22;10132;50.864;5.176;2024-01-27T08:47:31;4.10;99.90
19941;DHT22;10132;50.864;5.176;2024-01-27T08:49:33;4.30;99.90
19941;DHT22;10132;50.864;5.176;2024-01-27T08:51:35;4.30;99.90
19941;DHT22;10132;50.864;5.176;2024-01-27T08:53:37;4.10;99.90
19941;DHT22;10132;50.864;5.176;2024-01-27T08:55:41;4.00;99.90
19941;DHT22;10132;50.864;5.176;2024-01-27T08:57:43;4.00;99.90
19941;DHT22;10132;50.864;5.176;2024-01-27T08:59:45;4.10;99.90
19941;DHT22;10132;50.864;5.176;2024-01-27T09:01:47;4.10;99.90
19941;DHT22;10132;50.864;5.176;2024-01-27T09:03:49;3.90;99.90
19941;DHT22;10132;50.864;5.176;2024-01-27T09:05:50;4.10;99.90
19941;DHT22;10132;50.864;5.176;2024-01-27T09:07:52;4.40;99.90
19941;DHT22;10132;50.864;5.176;2024-01-27T09:09:54;4.50;99.90
19941;DHT22;10132;50.864;5.176;2024-01-27T09:11:58;4.40;99.90
19941;DHT22;10132;50.864;5.176;2024-01-27T09:14:00;4.50;99.90
19941;DHT22;10132;50.864;5.176;2024-01-27T09:16:01;4.60;99.90
19941;DHT22;10132;50.864;5.176;2024-01-27T09:18:03;4.70;99.90
19941;DHT22;10132;50.864;5.176;2024-01-27T09:20:07;4.90;99.90
19941;DHT22;10132;50.864;5.176;2024-01-27T09:22:08;5.00;99.90
19941;DHT22;10132;50.864;5.176;2024-01-27T09:24:10;5.10;99.90
19941;DHT22;10132;50.864;5.176;2024-01-27T09:26:12;5.20;99.90
19941;DHT22;10132;50.864;5.176;2024-01-27T09:28:17;5.20;99.90
19941;DHT22;10132;50.864;5.176;2024-01-27T09:30:19;5.40;99.90
19941;DHT22;10132;50.864;5.176;2024-01-27T09:32:21;5.50;99.90
19941;DHT22;10132;50.864;5.176;2024-01-27T09:34:23;5.40;99.90
19941;DHT22;10132;50.864;5.176;2024-01-27T09:36:25;5.50;99.90
19941;DHT22;10132;50.864;5.176;2024-01-27T09:38:27;5.70;99.90
19941;DHT22;10132;50.864;5.176;2024-01-27T09:40:28;6.00;99.90
19941;DHT22;10132;50.864;5.176;2024-01-27T09:42:33;6.10;99.90
19941;DHT22;10132;50.864;5.176;2024-01-27T09:44:37;6.10;99.90
19941;DHT22;10132;50.864;5.176;2024-01-27T09:46:40;6.20;99.90
19941;DHT22;10132;50.864;5.176;2024-01-27T09:48:42;6.20;99.90
19941;DHT22;10132;50.864;5.176;2024-01-27T09:50:45;6.30;99.90
19941;DHT22;10132;50.864;5.176;2024-01-27T09:52:49;6.40;99.90
19941;DHT22;10132;50.864;5.176;2024-01-27T09:54:51;6.40;99.90
19941;DHT22;10132;50.864;5.176;2024-01-27T09:56:52;6.40;99.90
19941;DHT22;10132;50.864;5.176;2024-01-27T09:58:54;6.50;99.90
19941;DHT22;10132;50.864;5.176;2024-01-27T10:00:59;6.60;99.90
19941;DHT22;10132;50.864;5.176;2024-01-27T10:03:03;6.60;99.90
19941;DHT22;10132;50.864;5.176;2024-01-27T10:05:08;6.60;99.90
19941;DHT22;10132;50.864;5.176;2024-01-27T10:07:09;6.60;99.90
19941;DHT22;10132;50.864;5.176;2024-01-27T10:09:11;6.50;99.90
19941;DHT22;10132;50.864;5.176;2024-01-27T10:11:14;6.80;99.90
19941;DHT22;10132;50.864;5.176;2024-01-27T10:13:17;6.70;99.90
19941;DHT22;10132;50.864;5.176;2024-01-27T10:15:19;6.60;99.90
19941;DHT22;10132;50.864;5.176;2024-01-27T10:17:24;6.60;99.90
19941;DHT22;10132;50.864;5.176;2024-01-27T10:19:30;6.40;99.90
19941;DHT22;10132;50.864;5.176;2024-01-27T10:21:31;6.80;99.90
19941;DHT22;10132;50.864;5.176;2024-01-27T10:23:38;7.00;99.90
19941;DHT22;10132;50.864;5.176;2024-01-27T10:25:41;7.20;99.90
19941;DHT22;10132;50.864;5.176;2024-01-27T10:27:42;7.50;99.90
19941;DHT22;10132;50.864;5.176;2024-01-27T10:29:52;7.60;99.90
19941;DHT22;10132;50.864;5.176;2024-01-27T10:31:54;7.60;99.90
19941;DHT22;10132;50.864;5.176;2024-01-27T10:33:56;7.50;99.90
19941;DHT22;10132;50.864;5.176;2024-01-27T10:35:59;7.60;99.90
19941;DHT22;10132;50.864;5.176;2024-01-27T10:38:00;7.90;99.90
19941;DHT22;10132;50.864;5.176;2024-01-27T10:40:03;8.10;99.90
19941;DHT22;10132;50.864;5.176;2024-01-27T10:42:06;8.30;99.90
19941;DHT22;10132;50.864;5.176;2024-01-27T10:44:10;7.90;99.90
19941;DHT22;10132;50.864;5.176;2024-01-27T10:46:14;8.30;99.90
19941;DHT22;10132;50.864;5.176;2024-01-27T10:48:16;8.20;99.90
19941;DHT22;10132;50.864;5.176;2024-01-27T10:50:20;8.00;99.90
19941;DHT22;10132;50.864;5.176;2024-01-27T10:52:24;7.90;99.90
19941;DHT22;10132;50.864;5.176;2024-01-27T10:54:29;7.80;99.90
19941;DHT22;10132;50.864;5.176;2024-01-27T10:56:32;7.80;99.90
19941;DHT22;10132;50.864;5.176;2024-01-27T10:58:34;7.70;99.90
19941;DHT22;10132;50.864;5.176;2024-01-27T11:00:42;7.80;99.90
19941;DHT22;10132;50.864;5.176;2024-01-27T11:02:45;8.00;99.90
19941;DHT22;10132;50.864;5.176;2024-01-27T11:04:53;8.20;99.90
19941;DHT22;10132;50.864;5.176;2024-01-27T11:06:56;8.40;99.90
19941;DHT22;10132;50.864;5.176;2024-01-27T11:08:59;8.10;99.90
19941;DHT22;10132;50.864;5.176;2024-01-27T11:11:04;7.90;99.90
19941;DHT22;10132;50.864;5.176;2024-01-27T11:13:07;7.80;99.90
19941;DHT22;10132;50.864;5.176;2024-01-27T11:15:09;7.70;99.90
19941;DHT22;10132;50.864;5.176;2024-01-27T11:17:12;7.80;99.90
19941;DHT22;10132;50.864;5.176;2024-01-27T11:19:16;7.90;99.90
19941;DHT22;10132;50.864;5.176;2024-01-27T11:21:18;7.90;99.90
19941;DHT22;10132;50.864;5.176;2024-01-27T11:23:31;7.70;99.90
19941;DHT22;10132;50.864;5.176;2024-01-27T11:25:33;7.80;99.90
19941;DHT22;10132;50.864;5.176;2024-01-27T11:27:35;8.10;99.90
19941;DHT22;10132;50.864;5.176;2024-01-27T11:29:47;8.20;99.90
19941;DHT22;10132;50.864;5.176;2024-01-27T11:31:49;8.40;99.90
19941;DHT22;10132;50.864;5.176;2024-01-27T11:33:51;8.60;99.90
19941;DHT22;10132;50.864;5.176;2024-01-27T11:36:00;8.30;99.90
19941;DHT22;10132;50.864;5.176;2024-01-27T11:38:01;8.20;99.90
19941;DHT22;10132;50.864;5.176;2024-01-27T11:40:06;8.10;99.90
19941;DHT22;10132;50.864;5.176;2024-01-27T11:42:09;8.20;99.90
19941;DHT22;10132;50.864;5.176;2024-01-27T11:44:12;8.20;99.90
19941;DHT22;10132;50.864;5.176;2024-01-27T11:46:15;8.20;99.90
19941;DHT22;10132;50.864;5.176;2024-01-27T11:48:18;8.20;99.90
19941;DHT22;10132;50.864;5.176;2024-01-27T11:50:20;8.20;99.90
19941;DHT22;10132;50.864;5.176;2024-01-27T11:52:22;8.30;99.90
19941;DHT22;10132;50.864;5.176;2024-01-27T11:54:24;8.40;99.90
19941;DHT22;10132;50.864;5.176;2024-01-27T11:56:27;8.40;99.90
19941;DHT22;10132;50.864;5.176;2024-01-27T11:58:29;8.20;99.90
19941;DHT22;10132;50.864;5.176;2024-01-27T12:00:31;8.40;99.90
19941;DHT22;10132;50.864;5.176;2024-01-27T12:02:33;8.40;99.90
19941;DHT22;10132;50.864;5.176;2024-01-27T12:04:35;8.80;99.90
19941;DHT22;10132;50.864;5.176;2024-01-27T12:06:37;9.20;99.90
19941;DHT22;10132;50.864;5.176;2024-01-27T12:08:41;9.10;99.90
19941;DHT22;10132;50.864;5.176;2024-01-27T12:10:47;8.90;99.90
19941;DHT22;10132;50.864;5.176;2024-01-27T12:12:51;8.80;99.90
19941;DHT22;10132;50.864;5.176;2024-01-27T12:14:53;9.00;99.90
19941;DHT22;10132;50.864;5.176;2024-01-27T12:16:55;9.20;99.90
19941;DHT22;10132;50.864;5.176;2024-01-27T12:18:56;9.00;99.90
19941;DHT22;10132;50.864;5.176;2024-01-27T12:20:58;9.00;99.90
19941;DHT22;10132;50.864;5.176;2024-01-27T12:23:03;9.30;99.90
19941;DHT22;10132;50.864;5.176;2024-01-27T12:25:08;9.60;99.90
19941;DHT22;10132;50.864;5.176;2024-01-27T12:27:11;9.70;99.90
19941;DHT22;10132;50.864;5.176;2024-01-27T12:29:14;9.50;99.90
19941;DHT22;10132;50.864;5.176;2024-01-27T12:31:16;9.30;99.90
19941;DHT22;10132;50.864;5.176;2024-01-27T12:33:19;9.30;99.90
19941;DHT22;10132;50.864;5.176;2024-01-27T12:35:25;9.10;99.90
19941;DHT22;10132;50.864;5.176;2024-01-27T12:37:29;8.80;99.90
19941;DHT22;10132;50.864;5.176;2024-01-27T12:39:31;8.80;99.90
19941;DHT22;10132;50.864;5.176;2024-01-27T12:41:33;8.80;99.90
19941;DHT22;10132;50.864;5.176;2024-01-27T12:43:35;9.00;99.90
19941;DHT22;10132;50.864;5.176;2024-01-27T12:45:39;9.10;99.90
19941;DHT22;10132;50.864;5.176;2024-01-27T12:47:41;8.90;99.90
19941;DHT22;10132;50.864;5.176;2024-01-27T12:49:42;8.70;99.90
19941;DHT22;10132;50.864;5.176;2024-01-27T12:51:44;8.90;99.90
19941;DHT22;10132;50.864;5.176;2024-01-27T12:53:48;9.30;99.90
19941;DHT22;10132;50.864;5.176;2024-01-27T12:55:50;9.40;99.90
19941;DHT22;10132;50.864;5.176;2024-01-27T12:57:51;9.30;99.90
19941;DHT22;10132;50.864;5.176;2024-01-27T12:59:53;9.30;99.90
19941;DHT22;10132;50.864;5.176;2024-01-27T13:01:57;9.00;99.90
19941;DHT22;10132;50.864;5.176;2024-01-27T13:03:58;8.90;99.90
19941;DHT22;10132;50.864;5.176;2024-01-27T13:06:01;8.70;99.90